sensor_id;sensor_type;location;lat;lon;timestamp;pressure;altitude;pressure_sealevel;temperature;humidity
79037;BME280;68434;59.896;30.474;2023-07-08T00:01:14;101544.06;;;20.88;54.91
79037;BME280;68434;59.896;30.474;2023-07-08T00:03:42;101546.19;;;20.86;55.05
79037;BME280;68434;59.896;30.474;2023-07-08T00:06:14;101540.81;;;20.78;55.10
79037;BME280;68434;59.896;30.474;2023-07-08T00:08:44;101540.81;;;20.78;55.17
79037;BME280;68434;59.896;30.474;2023-07-08T00:11:12;101536.19;;;20.79;54.99
79037;BME280;68434;59.896;30.474;2023-07-08T00:13:40;101537.00;;;20.79;54.91
79037;BME280;68434;59.896;30.474;2023-07-08T00:16:10;101535.13;;;20.80;54.88
79037;BME280;68434;59.896;30.474;2023-07-08T00:18:38;101532.56;;;20.78;54.98
79037;BME280;68434;59.896;30.474;2023-07-08T00:21:09;101525.59;;;20.76;54.89
79037;BME280;68434;59.896;30.474;2023-07-08T00:23:43;101525.59;;;20.76;54.77
79037;BME280;68434;59.896;30.474;2023-07-08T00:26:16;101522.63;;;20.77;54.68
79037;BME280;68434;59.896;30.474;2023-07-08T00:28:44;101522.84;;;20.76;54.59
79037;BME280;68434;59.896;30.474;2023-07-08T00:31:13;101524.06;;;20.73;54.78
79037;BME280;68434;59.896;30.474;2023-07-08T00:33:41;101522.59;;;20.71;54.70
79037;BME280;68434;59.896;30.474;2023-07-08T00:36:11;101519.84;;;20.71;54.72
79037;BME280;68434;59.896;30.474;2023-07-08T00:38:38;101520.91;;;20.70;54.92
79037;BME280;68434;59.896;30.474;2023-07-08T00:41:16;101518.16;;;20.70;55.00
79037;BME280;68434;59.896;30.474;2023-07-08T00:43:49;101514.34;;;20.71;54.92
79037;BME280;68434;59.896;30.474;2023-07-08T00:51:56;101508.16;;;20.62;54.68
79037;BME280;68434;59.896;30.474;2023-07-08T00:54:23;101506.84;;;20.58;54.96
79037;BME280;68434;59.896;30.474;2023-07-08T00:56:54;101506.22;;;20.56;54.68
79037;BME280;68434;59.896;30.474;2023-07-08T00:59:26;101503.88;;;20.53;54.67
79037;BME280;68434;59.896;30.474;2023-07-08T01:01:56;101511.91;;;20.55;54.85
79037;BME280;68434;59.896;30.474;2023-07-08T01:04:31;101500.06;;;20.54;54.89
79037;BME280;68434;59.896;30.474;2023-07-08T01:07:01;101500.91;;;20.55;54.72
79037;BME280;68434;59.896;30.474;2023-07-08T01:09:33;101493.06;;;20.52;54.69
79037;BME280;68434;59.896;30.474;2023-07-08T01:12:08;101498.56;;;20.52;54.80
79037;BME280;68434;59.896;30.474;2023-07-08T01:14:36;101502.00;;;20.60;54.47
79037;BME280;68434;59.896;30.474;2023-07-08T01:17:06;101498.56;;;20.52;54.50
79037;BME280;68434;59.896;30.474;2023-07-08T01:19:33;101495.75;;;20.45;54.84
79037;BME280;68434;59.896;30.474;2023-07-08T01:22:03;101494.28;;;20.42;54.88
79037;BME280;68434;59.896;30.474;2023-07-08T01:24:34;101493.63;;;20.40;54.91
79037;BME280;68434;59.896;30.474;2023-07-08T01:27:05;101498.47;;;20.38;54.96
79037;BME280;68434;59.896;30.474;2023-07-08T01:29:34;101496.97;;;20.36;55.21
79037;BME280;68434;59.896;30.474;2023-07-08T01:32:01;101501.84;;;20.34;55.20
79037;BME280;68434;59.896;30.474;2023-07-08T01:34:29;101495.22;;;20.28;55.41
79037;BME280;68434;59.896;30.474;2023-07-08T01:36:59;101497.34;;;20.26;55.63
79037;BME280;68434;59.896;30.474;2023-07-08T01:39:31;101496.22;;;20.21;55.56
79037;BME280;68434;59.896;30.474;2023-07-08T01:41:59;101493.22;;;20.16;55.78
79037;BME280;68434;59.896;30.474;2023-07-08T01:44:29;101498.28;;;20.12;55.80
79037;BME280;68434;59.896;30.474;2023-07-08T01:46:59;101499.13;;;20.13;55.79
79037;BME280;68434;59.896;30.474;2023-07-08T01:49:28;101502.50;;;20.15;55.78
79037;BME280;68434;59.896;30.474;2023-07-08T01:51:58;101493.44;;;20.14;55.79
79037;BME280;68434;59.896;30.474;2023-07-08T01:54:26;101500.13;;;20.12;56.09
79037;BME280;68434;59.896;30.474;2023-07-08T01:56:58;101501.00;;;20.12;56.09
79037;BME280;68434;59.896;30.474;2023-07-08T01:59:27;101500.63;;;20.15;55.91
79037;BME280;68434;59.896;30.474;2023-07-08T02:01:55;101503.16;;;20.17;55.68
79037;BME280;68434;59.896;30.474;2023-07-08T02:04:24;101503.56;;;20.14;55.90
79037;BME280;68434;59.896;30.474;2023-07-08T02:06:53;101496.81;;;20.16;55.67
79037;BME280;68434;59.896;30.474;2023-07-08T02:09:22;101502.69;;;20.13;55.57
79037;BME280;68434;59.896;30.474;2023-07-08T02:11:50;101504.13;;;20.09;56.06
79037;BME280;68434;59.896;30.474;2023-07-08T02:14:20;101496.53;;;20.11;56.08
79037;BME280;68434;59.896;30.474;2023-07-08T02:16:48;101494.91;;;20.17;56.07
79037;BME280;68434;59.896;30.474;2023-07-08T02:19:16;101500.69;;;20.22;56.02
79037;BME280;68434;59.896;30.474;2023-07-08T02:21:43;101515.25;;;20.22;55.95
79037;BME280;68434;59.896;30.474;2023-07-08T02:24:11;101514.63;;;20.20;55.87
79037;BME280;68434;59.896;30.474;2023-07-08T02:26:38;101503.16;;;20.17;55.91
79037;BME280;68434;59.896;30.474;2023-07-08T02:29:06;101505.72;;;20.18;56.10
79037;BME280;68434;59.896;30.474;2023-07-08T02:31:36;101512.50;;;20.22;56.13
79037;BME280;68434;59.896;30.474;2023-07-08T02:34:03;101503.22;;;20.23;55.85
79037;BME280;68434;59.896;30.474;2023-07-08T02:36:32;101502.78;;;20.20;55.91
79037;BME280;68434;59.896;30.474;2023-07-08T02:39:01;101504.25;;;20.22;55.89
79037;BME280;68434;59.896;30.474;2023-07-08T02:41:28;101501.06;;;20.19;55.94
79037;BME280;68434;59.896;30.474;2023-07-08T02:43:56;101499.94;;;20.13;55.90
79037;BME280;68434;59.896;30.474;2023-07-08T02:46:24;101510.63;;;20.23;56.04
79037;BME280;68434;59.896;30.474;2023-07-08T02:48:54;101510.34;;;20.18;56.06
79037;BME280;68434;59.896;30.474;2023-07-08T02:51:21;101505.25;;;20.15;56.08
79037;BME280;68434;59.896;30.474;2023-07-08T02:53:50;101502.69;;;20.13;55.95
79037;BME280;68434;59.896;30.474;2023-07-08T02:56:17;101497.00;;;20.15;56.15
79037;BME280;68434;59.896;30.474;2023-07-08T02:58:45;101500.81;;;20.14;56.00
79037;BME280;68434;59.896;30.474;2023-07-08T03:01:12;101497.88;;;20.15;56.25
79037;BME280;68434;59.896;30.474;2023-07-08T03:03:44;101490.09;;;20.19;56.03
79037;BME280;68434;59.896;30.474;2023-07-08T03:06:13;101493.66;;;20.19;55.99
79037;BME280;68434;59.896;30.474;2023-07-08T03:08:41;101496.41;;;20.19;56.03
79037;BME280;68434;59.896;30.474;2023-07-08T03:11:09;101494.53;;;20.20;55.96
79037;BME280;68434;59.896;30.474;2023-07-08T03:13:37;101497.53;;;20.25;55.86
79037;BME280;68434;59.896;30.474;2023-07-08T03:16:05;101494.78;;;20.25;55.68
79037;BME280;68434;59.896;30.474;2023-07-08T03:18:39;101495.41;;;20.27;56.05
79037;BME280;68434;59.896;30.474;2023-07-08T03:21:14;101499.22;;;20.26;55.88
79037;BME280;68434;59.896;30.474;2023-07-08T03:23:42;101499.22;;;20.26;56.07
79037;BME280;68434;59.896;30.474;2023-07-08T03:26:13;101500.09;;;20.26;55.81
79037;BME280;68434;59.896;30.474;2023-07-08T03:28:44;101500.91;;;20.27;56.01
79037;BME280;68434;59.896;30.474;2023-07-08T03:31:11;101495.22;;;20.28;55.99
79037;BME280;68434;59.896;30.474;2023-07-08T03:33:39;101501.56;;;20.29;55.97
79037;BME280;68434;59.896;30.474;2023-07-08T03:36:11;101492.47;;;20.28;55.97
79037;BME280;68434;59.896;30.474;2023-07-08T03:38:40;101493.72;;;20.26;55.96
79037;BME280;68434;59.896;30.474;2023-07-08T03:41:07;101488.03;;;20.27;56.19
79037;BME280;68434;59.896;30.474;2023-07-08T03:43:35;101487.84;;;20.29;56.08
79037;BME280;68434;59.896;30.474;2023-07-08T03:46:03;101485.75;;;20.31;56.37
79037;BME280;68434;59.896;30.474;2023-07-08T03:48:30;101488.91;;;20.34;56.20
79037;BME280;68434;59.896;30.474;2023-07-08T03:51:00;101497.81;;;20.36;56.09
79037;BME280;68434;59.896;30.474;2023-07-08T03:53:28;101493.19;;;20.37;56.21
79037;BME280;68434;59.896;30.474;2023-07-08T03:55:57;101485.97;;;20.36;56.38
79037;BME280;68434;59.896;30.474;2023-07-08T03:58:25;101488.91;;;20.34;56.22
79037;BME280;68434;59.896;30.474;2023-07-08T04:00:53;101499.09;;;20.34;56.49
79037;BME280;68434;59.896;30.474;2023-07-08T04:03:21;101488.09;;;20.34;56.39
79037;BME280;68434;59.896;30.474;2023-07-08T04:05:49;101487.03;;;20.35;56.47
79037;BME280;68434;59.896;30.474;2023-07-08T04:08:17;101486.28;;;20.48;56.38
79037;BME280;68434;59.896;30.474;2023-07-08T04:10:44;101480.53;;;20.42;56.49
79037;BME280;68434;59.896;30.474;2023-07-08T04:13:13;101486.22;;;20.41;56.18
79037;BME280;68434;59.896;30.474;2023-07-08T04:15:40;101474.97;;;20.36;56.18
79037;BME280;68434;59.896;30.474;2023-07-08T04:18:08;101482.19;;;20.37;56.37
79037;BME280;68434;59.896;30.474;2023-07-08T04:20:35;101483.03;;;20.37;56.33
79037;BME280;68434;59.896;30.474;2023-07-08T04:23:03;101479.88;;;20.40;56.24
79037;BME280;68434;59.896;30.474;2023-07-08T04:25:30;101477.53;;;20.37;56.02
79037;BME280;68434;59.896;30.474;2023-07-08T04:27:58;101486.81;;;20.36;56.01
79037;BME280;68434;59.896;30.474;2023-07-08T04:30:27;101478.47;;;20.51;55.79
79037;BME280;68434;59.896;30.474;2023-07-08T04:32:55;101482.22;;;20.43;55.71
79037;BME280;68434;59.896;30.474;2023-07-08T04:35:22;101482.63;;;20.40;55.72
79037;BME280;68434;59.896;30.474;2023-07-08T04:37:50;101479.03;;;20.40;55.71
79037;BME280;68434;59.896;30.474;2023-07-08T04:40:19;101481.59;;;20.41;55.83
79037;BME280;68434;59.896;30.474;2023-07-08T04:42:48;101479.47;;;20.43;55.86
79037;BME280;68434;59.896;30.474;2023-07-08T04:45:18;101483.28;;;20.42;55.57
79037;BME280;68434;59.896;30.474;2023-07-08T04:47:47;101476.53;;;20.45;55.57
79037;BME280;68434;59.896;30.474;2023-07-08T04:50:18;101476.53;;;20.45;55.63
79037;BME280;68434;59.896;30.474;2023-07-08T04:52:46;101476.31;;;20.46;55.61
79037;BME280;68434;59.896;30.474;2023-07-08T04:55:13;101470.41;;;20.49;55.33
79037;BME280;68434;59.896;30.474;2023-07-08T04:57:41;101465.56;;;20.52;55.51
79037;BME280;68434;59.896;30.474;2023-07-08T05:00:14;101467.25;;;20.52;55.60
79037;BME280;68434;59.896;30.474;2023-07-08T05:02:43;101475.31;;;20.54;55.67
79037;BME280;68434;59.896;30.474;2023-07-08T05:05:12;101466.00;;;20.55;55.57
79037;BME280;68434;59.896;30.474;2023-07-08T05:07:39;101462.22;;;20.56;55.47
79037;BME280;68434;59.896;30.474;2023-07-08T05:10:07;101463.25;;;20.55;55.44
79037;BME280;68434;59.896;30.474;2023-07-08T05:12:35;101457.53;;;20.57;55.57
79037;BME280;68434;59.896;30.474;2023-07-08T05:15:03;101457.13;;;20.60;55.56
79037;BME280;68434;59.896;30.474;2023-07-08T05:17:31;101461.00;;;20.65;55.50
79037;BME280;68434;59.896;30.474;2023-07-08T05:19:59;101463.56;;;20.67;55.48
79037;BME280;68434;59.896;30.474;2023-07-08T05:22:30;101466.31;;;20.67;55.34
79037;BME280;68434;59.896;30.474;2023-07-08T05:24:58;101468.19;;;20.66;55.24
79037;BME280;68434;59.896;30.474;2023-07-08T05:27:25;101462.47;;;20.68;55.15
79037;BME280;68434;59.896;30.474;2023-07-08T05:29:53;101462.28;;;20.69;54.91
79037;BME280;68434;59.896;30.474;2023-07-08T05:32:21;101469.66;;;20.69;54.95
79037;BME280;68434;59.896;30.474;2023-07-08T05:34:48;101472.41;;;20.69;54.71
79037;BME280;68434;59.896;30.474;2023-07-08T05:37:16;101464.81;;;20.71;54.73
79037;BME280;68434;59.896;30.474;2023-07-08T05:39:48;101464.81;;;20.71;54.60
79037;BME280;68434;59.896;30.474;2023-07-08T05:42:16;101466.97;;;20.75;54.57
79037;BME280;68434;59.896;30.474;2023-07-08T05:44:43;101465.69;;;20.78;54.56
79037;BME280;68434;59.896;30.474;2023-07-08T05:47:11;101456.63;;;20.77;54.57
79037;BME280;68434;59.896;30.474;2023-07-08T05:49:38;101453.66;;;20.79;54.63
79037;BME280;68434;59.896;30.474;2023-07-08T05:52:06;101453.47;;;20.80;54.60
79037;BME280;68434;59.896;30.474;2023-07-08T05:54:37;101452.00;;;20.84;54.80
79037;BME280;68434;59.896;30.474;2023-07-08T05:57:09;101452.00;;;20.84;54.76
79037;BME280;68434;59.896;30.474;2023-07-08T05:59:37;101444.34;;;20.80;54.82
79037;BME280;68434;59.896;30.474;2023-07-08T06:02:06;101441.41;;;20.81;54.94
79037;BME280;68434;59.896;30.474;2023-07-08T06:04:34;101441.00;;;20.84;54.76
79037;BME280;68434;59.896;30.474;2023-07-08T06:07:02;101450.59;;;20.95;54.38
79037;BME280;68434;59.896;30.474;2023-07-08T06:09:29;101448.41;;;20.90;54.34
79037;BME280;68434;59.896;30.474;2023-07-08T06:11:57;101438.91;;;20.86;54.47
79037;BME280;68434;59.896;30.474;2023-07-08T06:14:26;101441.63;;;20.86;54.30
79037;BME280;68434;59.896;30.474;2023-07-08T06:16:54;101441.03;;;20.91;54.28
79037;BME280;68434;59.896;30.474;2023-07-08T06:19:22;101436.16;;;20.93;54.18
79037;BME280;68434;59.896;30.474;2023-07-08T06:21:49;101441.94;;;20.98;54.01
79037;BME280;68434;59.896;30.474;2023-07-08T06:24:17;101437.50;;;21.03;53.78
79037;BME280;68434;59.896;30.474;2023-07-08T06:26:45;101440.03;;;21.05;53.51
79037;BME280;68434;59.896;30.474;2023-07-08T06:29:12;101431.63;;;21.26;52.98
79037;BME280;68434;59.896;30.474;2023-07-08T06:31:45;101430.00;;;21.51;52.37
79037;BME280;68434;59.896;30.474;2023-07-08T06:34:13;101425.34;;;21.58;51.85
79037;BME280;68434;59.896;30.474;2023-07-08T06:36:40;101428.09;;;21.58;51.76
79037;BME280;68434;59.896;30.474;2023-07-08T06:39:11;101431.31;;;21.61;51.82
79037;BME280;68434;59.896;30.474;2023-07-08T06:41:38;101419.25;;;21.82;51.18
79037;BME280;68434;59.896;30.474;2023-07-08T06:44:06;101416.72;;;21.80;51.07
79037;BME280;68434;59.896;30.474;2023-07-08T06:46:33;101416.03;;;21.65;51.48
79037;BME280;68434;59.896;30.474;2023-07-08T06:49:03;101417.72;;;21.53;51.81
79037;BME280;68434;59.896;30.474;2023-07-08T06:51:34;101409.44;;;21.47;51.85
79037;BME280;68434;59.896;30.474;2023-07-08T06:54:02;101410.94;;;21.43;52.05
79037;BME280;68434;59.896;30.474;2023-07-08T06:56:38;101411.56;;;21.45;52.13
79037;BME280;68434;59.896;30.474;2023-07-08T06:59:05;101410.94;;;21.56;52.05
79037;BME280;68434;59.896;30.474;2023-07-08T07:01:33;101415.81;;;21.47;52.00
79037;BME280;68434;59.896;30.474;2023-07-08T07:04:04;101403.09;;;21.40;51.93
79037;BME280;68434;59.896;30.474;2023-07-08T07:06:32;101405.00;;;21.33;52.04
79037;BME280;68434;59.896;30.474;2023-07-08T07:08:59;101402.00;;;21.28;52.20
79037;BME280;68434;59.896;30.474;2023-07-08T07:11:27;101402.44;;;21.25;52.28
79037;BME280;68434;59.896;30.474;2023-07-08T07:13:55;101398.00;;;21.24;52.41
79037;BME280;68434;59.896;30.474;2023-07-08T07:16:23;101387.59;;;21.26;52.43
79037;BME280;68434;59.896;30.474;2023-07-08T07:18:50;101391.00;;;21.28;52.31
79037;BME280;68434;59.896;30.474;2023-07-08T07:21:19;101395.22;;;21.30;52.46
79037;BME280;68434;59.896;30.474;2023-07-08T07:23:47;101394.81;;;21.33;52.44
79037;BME280;68434;59.896;30.474;2023-07-08T07:26:14;101393.97;;;21.33;52.32
79037;BME280;68434;59.896;30.474;2023-07-08T07:28:42;101393.78;;;21.34;52.29
79037;BME280;68434;59.896;30.474;2023-07-08T07:31:09;101387.00;;;21.37;52.37
79037;BME280;68434;59.896;30.474;2023-07-08T07:33:37;101379.38;;;21.39;52.05
79037;BME280;68434;59.896;30.474;2023-07-08T07:36:05;101392.72;;;21.42;51.91
79037;BME280;68434;59.896;30.474;2023-07-08T07:38:34;101391.66;;;21.43;51.76
79037;BME280;68434;59.896;30.474;2023-07-08T07:41:02;101391.88;;;21.41;51.47
79037;BME280;68434;59.896;30.474;2023-07-08T07:43:32;101401.81;;;21.42;51.60
79037;BME280;68434;59.896;30.474;2023-07-08T07:46:00;101397.38;;;21.48;51.48
79037;BME280;68434;59.896;30.474;2023-07-08T07:48:28;101389.75;;;21.50;51.29
79037;BME280;68434;59.896;30.474;2023-07-08T07:50:56;101397.59;;;21.53;51.11
79037;BME280;68434;59.896;30.474;2023-07-08T07:53:23;101394.84;;;21.53;51.10
79037;BME280;68434;59.896;30.474;2023-07-08T07:55:57;101395.25;;;21.50;50.85
79037;BME280;68434;59.896;30.474;2023-07-08T07:58:25;101397.81;;;21.51;50.79
79037;BME280;68434;59.896;30.474;2023-07-08T08:00:53;101408.63;;;21.46;51.03
79037;BME280;68434;59.896;30.474;2023-07-08T08:03:21;101406.50;;;21.42;50.99
79037;BME280;68434;59.896;30.474;2023-07-08T08:05:49;101409.25;;;21.42;50.67
79037;BME280;68434;59.896;30.474;2023-07-08T08:08:16;101405.63;;;21.41;50.76
79037;BME280;68434;59.896;30.474;2023-07-08T08:10:44;101404.56;;;21.42;50.79
79037;BME280;68434;59.896;30.474;2023-07-08T08:13:13;101409.88;;;21.44;50.87
79037;BME280;68434;59.896;30.474;2023-07-08T08:15:40;101399.91;;;21.43;51.19
79037;BME280;68434;59.896;30.474;2023-07-08T08:18:08;101397.16;;;21.43;51.39
79037;BME280;68434;59.896;30.474;2023-07-08T08:20:35;101405.41;;;21.43;51.46
79037;BME280;68434;59.896;30.474;2023-07-08T08:23:03;101394.41;;;21.43;51.33
79037;BME280;68434;59.896;30.474;2023-07-08T08:25:32;101398.84;;;21.44;51.55
79037;BME280;68434;59.896;30.474;2023-07-08T08:28:00;101396.09;;;21.44;51.20
79037;BME280;68434;59.896;30.474;2023-07-08T08:30:31;101391.66;;;21.43;51.32
79037;BME280;68434;59.896;30.474;2023-07-08T08:32:58;101383.41;;;21.43;51.05
79037;BME280;68434;59.896;30.474;2023-07-08T08:35:26;101387.44;;;21.40;51.23
79037;BME280;68434;59.896;30.474;2023-07-08T08:37:54;101376.41;;;21.40;51.25
79037;BME280;68434;59.896;30.474;2023-07-08T08:40:22;101379.38;;;21.39;51.34
79037;BME280;68434;59.896;30.474;2023-07-08T08:42:59;101375.56;;;21.40;51.37
79037;BME280;68434;59.896;30.474;2023-07-08T08:45:35;101384.69;;;21.40;51.42
79037;BME280;68434;59.896;30.474;2023-07-08T08:48:08;101377.88;;;21.43;51.20
79037;BME280;68434;59.896;30.474;2023-07-08T08:50:42;101387.63;;;21.45;50.95
79037;BME280;68434;59.896;30.474;2023-07-08T08:53:13;101388.06;;;21.49;51.07
79037;BME280;68434;59.896;30.474;2023-07-08T08:55:45;101379.81;;;21.49;50.89
79037;BME280;68434;59.896;30.474;2023-07-08T08:58:27;101389.75;;;21.50;51.04
79037;BME280;68434;59.896;30.474;2023-07-08T09:00:59;101377.91;;;21.49;50.98
79037;BME280;68434;59.896;30.474;2023-07-08T09:03:34;101381.69;;;21.48;51.07
79037;BME280;68434;59.896;30.474;2023-07-08T09:06:10;101384.44;;;21.48;51.05
79037;BME280;68434;59.896;30.474;2023-07-08T09:08:39;101380.66;;;21.49;51.12
79037;BME280;68434;59.896;30.474;2023-07-08T09:11:17;101388.72;;;21.51;51.23
79037;BME280;68434;59.896;30.474;2023-07-08T09:13:46;101385.53;;;21.54;51.12
79037;BME280;68434;59.896;30.474;2023-07-08T09:16:23;101383.81;;;21.53;50.87
79037;BME280;68434;59.896;30.474;2023-07-08T09:18:58;101387.00;;;21.50;50.84
79037;BME280;68434;59.896;30.474;2023-07-08T09:21:29;101391.66;;;21.56;50.74
79037;BME280;68434;59.896;30.474;2023-07-08T09:24:01;101392.72;;;21.48;50.92
79037;BME280;68434;59.896;30.474;2023-07-08T09:26:30;101388.91;;;21.43;50.98
79037;BME280;68434;59.896;30.474;2023-07-08T09:29:00;101384.47;;;21.42;51.11
79037;BME280;68434;59.896;30.474;2023-07-08T09:31:31;101389.53;;;21.38;51.27
79037;BME280;68434;59.896;30.474;2023-07-08T09:34:07;101385.72;;;21.39;51.52
79037;BME280;68434;59.896;30.474;2023-07-08T09:36:39;101382.13;;;21.39;51.47
79037;BME280;68434;59.896;30.474;2023-07-08T09:39:10;101384.03;;;21.38;51.49
79037;BME280;68434;59.896;30.474;2023-07-08T09:41:40;101381.28;;;21.38;51.55
79037;BME280;68434;59.896;30.474;2023-07-08T09:44:16;101377.88;;;21.36;51.49
79037;BME280;68434;59.896;30.474;2023-07-08T09:46:47;101382.34;;;21.37;51.61
79037;BME280;68434;59.896;30.474;2023-07-08T09:49:18;101379.59;;;21.37;51.77
79037;BME280;68434;59.896;30.474;2023-07-08T09:51:46;101385.31;;;21.36;51.78
79037;BME280;68434;59.896;30.474;2023-07-08T09:54:17;101384.25;;;21.37;51.70
79037;BME280;68434;59.896;30.474;2023-07-08T09:56:55;101379.81;;;21.36;51.86
79037;BME280;68434;59.896;30.474;2023-07-08T09:59:29;101379.59;;;21.37;51.96
79037;BME280;68434;59.896;30.474;2023-07-08T10:02:27;101380.41;;;21.38;51.93
79037;BME280;68434;59.896;30.474;2023-07-08T10:04:57;101369.81;;;21.35;51.80
79037;BME280;68434;59.896;30.474;2023-07-08T10:07:30;101380.00;;;21.34;52.11
79037;BME280;68434;59.896;30.474;2023-07-08T10:10:02;101376.59;;;21.32;52.06
79037;BME280;68434;59.896;30.474;2023-07-08T10:12:32;101370.25;;;21.32;52.33
79037;BME280;68434;59.896;30.474;2023-07-08T10:15:12;101363.06;;;21.31;52.31
79037;BME280;68434;59.896;30.474;2023-07-08T10:17:44;101366.00;;;21.29;52.37
79037;BME280;68434;59.896;30.474;2023-07-08T10:20:12;101371.31;;;21.31;52.75
79037;BME280;68434;59.896;30.474;2023-07-08T10:22:47;101371.31;;;21.31;52.81
79037;BME280;68434;59.896;30.474;2023-07-08T10:25:28;101370.66;;;21.29;52.61
79037;BME280;68434;59.896;30.474;2023-07-08T10:28:04;101378.94;;;21.22;53.07
79037;BME280;68434;59.896;30.474;2023-07-08T10:30:41;101371.31;;;21.18;53.06
79037;BME280;68434;59.896;30.474;2023-07-08T10:33:35;101371.91;;;21.20;53.02
79037;BME280;68434;59.896;30.474;2023-07-08T10:36:19;101372.16;;;21.25;53.14
79037;BME280;68434;59.896;30.474;2023-07-08T10:38:59;101373.19;;;21.30;53.33
79037;BME280;68434;59.896;30.474;2023-07-08T10:41:39;101363.28;;;21.36;53.52
79037;BME280;68434;59.896;30.474;2023-07-08T10:44:14;101368.97;;;21.41;53.57
79037;BME280;68434;59.896;30.474;2023-07-08T10:46:56;101360.53;;;21.49;53.65
79037;BME280;68434;59.896;30.474;2023-07-08T10:49:50;101354.19;;;21.55;53.16
79037;BME280;68434;59.896;30.474;2023-07-08T10:52:31;101348.03;;;21.59;53.08
79037;BME280;68434;59.896;30.474;2023-07-08T10:55:20;101344.00;;;21.62;52.23
79037;BME280;68434;59.896;30.474;2023-07-08T10:58:13;101345.50;;;21.64;52.00
79037;BME280;68434;59.896;30.474;2023-07-08T11:00:52;101341.25;;;21.68;51.65
79037;BME280;68434;59.896;30.474;2023-07-08T11:06:44;101349.50;;;21.68;50.61
79037;BME280;68434;59.896;30.474;2023-07-08T11:09:16;101355.66;;;21.70;50.75
79037;BME280;68434;59.896;30.474;2023-07-08T11:11:50;101345.25;;;21.72;50.61
79037;BME280;68434;59.896;30.474;2023-07-08T11:14:23;101354.22;;;21.74;50.76
79037;BME280;68434;59.896;30.474;2023-07-08T11:16:57;101361.19;;;21.77;50.66
79037;BME280;68434;59.896;30.474;2023-07-08T11:19:30;101365.41;;;21.86;50.74
79037;BME280;68434;59.896;30.474;2023-07-08T11:22:04;101367.56;;;21.84;50.48
79037;BME280;68434;59.896;30.474;2023-07-08T11:24:38;101363.09;;;21.83;50.47
79037;BME280;68434;59.896;30.474;2023-07-08T11:27:12;101371.78;;;21.86;50.27
79037;BME280;68434;59.896;30.474;2023-07-08T11:29:48;101371.34;;;21.89;50.02
79037;BME280;68434;59.896;30.474;2023-07-08T11:32:20;101379.19;;;21.92;50.15
79037;BME280;68434;59.896;30.474;2023-07-08T11:34:52;101372.00;;;21.91;50.15
79037;BME280;68434;59.896;30.474;2023-07-08T11:37:22;101378.75;;;21.89;50.42
79037;BME280;68434;59.896;30.474;2023-07-08T11:39:54;101390.66;;;21.89;50.86
79037;BME280;68434;59.896;30.474;2023-07-08T11:42:32;101386.22;;;21.88;50.84
79037;BME280;68434;59.896;30.474;2023-07-08T11:45:08;101382.81;;;21.86;51.42
79037;BME280;68434;59.896;30.474;2023-07-08T11:47:38;101392.97;;;21.86;51.38
79037;BME280;68434;59.896;30.474;2023-07-08T11:50:14;101389.38;;;21.85;51.45
79037;BME280;68434;59.896;30.474;2023-07-08T11:52:52;101387.66;;;21.84;51.45
79037;BME280;68434;59.896;30.474;2023-07-08T11:55:23;101382.16;;;21.84;51.45
79037;BME280;68434;59.896;30.474;2023-07-08T11:57:55;101386.63;;;21.85;51.40
79037;BME280;68434;59.896;30.474;2023-07-08T12:00:25;101392.75;;;21.87;51.78
79037;BME280;68434;59.896;30.474;2023-07-08T12:02:56;101389.56;;;21.90;51.70
79037;BME280;68434;59.896;30.474;2023-07-08T12:05:32;101400.16;;;21.93;51.91
79037;BME280;68434;59.896;30.474;2023-07-08T12:08:03;101392.56;;;21.95;51.65
79037;BME280;68434;59.896;30.474;2023-07-08T12:10:39;101394.22;;;21.96;51.52
79037;BME280;68434;59.896;30.474;2023-07-08T12:13:12;101400.59;;;21.97;51.71
79037;BME280;68434;59.896;30.474;2023-07-08T12:15:42;101394.03;;;21.98;51.45
79037;BME280;68434;59.896;30.474;2023-07-08T12:18:13;101394.88;;;21.98;51.83
79037;BME280;68434;59.896;30.474;2023-07-08T12:20:45;101397.41;;;22.00;51.41
79037;BME280;68434;59.896;30.474;2023-07-08T12:23:18;101402.72;;;22.01;51.07
79037;BME280;68434;59.896;30.474;2023-07-08T12:25:47;101409.09;;;22.02;51.22
79037;BME280;68434;59.896;30.474;2023-07-08T12:28:15;101401.22;;;22.12;51.03
79037;BME280;68434;59.896;30.474;2023-07-08T12:30:43;101403.16;;;22.05;50.75
79037;BME280;68434;59.896;30.474;2023-07-08T12:33:13;101391.69;;;22.01;50.72
79037;BME280;68434;59.896;30.474;2023-07-08T12:35:42;101392.13;;;21.98;50.55
79037;BME280;68434;59.896;30.474;2023-07-08T12:38:19;101389.78;;;21.95;50.26
79037;BME280;68434;59.896;30.474;2023-07-08T12:40:50;101395.94;;;21.97;50.25
79037;BME280;68434;59.896;30.474;2023-07-08T12:43:18;101389.78;;;21.95;50.10
79037;BME280;68434;59.896;30.474;2023-07-08T12:45:46;101387.03;;;21.95;49.56
79037;BME280;68434;59.896;30.474;2023-07-08T12:48:13;101382.16;;;21.97;49.78
79037;BME280;68434;59.896;30.474;2023-07-08T12:50:41;101375.81;;;21.97;49.67
79037;BME280;68434;59.896;30.474;2023-07-08T12:53:10;101381.31;;;21.97;49.53
79037;BME280;68434;59.896;30.474;2023-07-08T12:55:42;101379.19;;;21.99;49.79
79037;BME280;68434;59.896;30.474;2023-07-08T12:58:13;101384.50;;;22.00;49.64
79037;BME280;68434;59.896;30.474;2023-07-08T13:00:44;101376.00;;;22.02;49.48
79037;BME280;68434;59.896;30.474;2023-07-08T13:03:16;101377.91;;;22.01;49.43
79037;BME280;68434;59.896;30.474;2023-07-08T13:05:45;101370.72;;;22.00;49.28